Flight Track Log - Related Links

Times and Time Zones

All times are in EDT time to prevent confusion due to time zone crossing. See the UAL252 flight status page for this flight to view local times or setup timezone preferences in your user account.

Time Position Orientation Groundspeed Altitude Reporting Facility
EDT Latitude Longitude Course Direction KTS MPH feet Rate Location/Type
Fri 06:06:20 PM 39.8833 -104.6000 118° Southeast 177 204 6,600  Level Denver TRACON
Fri 06:07:20 PM 39.8500 -104.5167 117° Southeast 238 274 8,700 1,855 Climbing Denver TRACON
Fri 06:08:10 PM 39.8300 -104.4539 113° Southeast 259 298 10,000 1,768 Climbing Denver Center
Fri 06:09:12 PM 39.7583 -104.3814 142° Southeast 324 373 12,000 1,984 Climbing Denver Center
Fri 06:10:14 PM 39.6519 -104.3953 186° South 382 440 14,100 2,293 Climbing Denver Center
Fri 06:11:15 PM 39.5353 -104.4078 185° South 392 451 16,700 2,293 Climbing Denver Center
Fri 06:12:17 PM 39.4211 -104.4217 185° South 415 478 18,800 1,984 Climbing Denver Center
Fri 06:13:19 PM 39.3044 -104.4372 186° South 420 483 20,800 1,887 Climbing Denver Center
Fri 06:14:21 PM 39.1717 -104.4533 185° South 441 507 22,700 1,694 Climbing Denver Center
Fri 06:15:23 PM 39.0533 -104.4381 174° South 450 518 24,300 1,694 Climbing Denver Center
Fri 06:16:25 PM 38.9142 -104.3983 167° South 460 529 26,200 1,694 Climbing Denver Center
Fri 06:17:27 PM 38.7947 -104.3631 167° South 465 535 27,800 1,355 Climbing Denver Center
Fri 06:18:29 PM 38.6675 -104.3208 165° South 468 539 29,000 581 Climbing Denver Center
Fri 06:19:31 PM 38.5619 -104.2178 143° Southeast 469 540 29,000  Level Denver Center
Fri 06:20:33 PM 38.4575 -104.1081 141° Southeast 469 540 29,000  Level Denver Center
Fri 06:21:35 PM 38.3456 -103.9889 140° Southeast 467 537 29,000  Level Denver Center
Fri 06:22:37 PM 38.2486 -103.8858 140° Southeast 471 542 29,000  Level Denver Center
Fri 06:23:39 PM 38.1364 -103.7661 140° Southeast 471 542 29,000  Level Denver Center
Fri 06:24:42 PM 38.0400 -103.6617 140° Southeast 472 543 29,000  Level Denver Center
Fri 06:25:43 PM 37.9269 -103.5431 140° Southeast 470 541 29,000  Level Denver Center
Fri 06:26:45 PM 37.8300 -103.4389 140° Southeast 473 544 29,000  Level Denver Center
Fri 06:27:47 PM 37.7325 -103.3369 140° Southeast 473 544 29,000  Level Denver Center
Fri 06:28:49 PM 37.6186 -103.2172 140° Southeast 474 545 29,000  Level Denver Center
Fri 06:29:51 PM 37.5208 -103.1153 140° Southeast 473 544 29,000  Level Denver Center
Fri 06:30:54 PM 37.4061 -102.9964 141° Southeast 475 547 29,000  Level Denver Center
Fri 06:31:23 PM 37.3564 -102.9453 141° Southeast 478 550 29,000  Level Albuquerque Center
Fri 06:32:25 PM 37.2589 -102.8433 140° Southeast 477 549 29,000  Level Albuquerque Center
Fri 06:33:26 PM 37.1439 -102.7253 141° Southeast 478 550 29,000  Level Albuquerque Center
Fri 06:34:28 PM 37.0439 -102.6228 141° Southeast 481 554 29,000  Level Albuquerque Center
Fri 06:35:30 PM 36.9369 -102.5131 141° Southeast 480 552 29,000  Level Albuquerque Center
Fri 06:36:31 PM 36.8383 -102.4125 141° Southeast 482 555 29,000  Level Albuquerque Center
Fri 06:37:33 PM 36.7347 -102.3081 141° Southeast 481 554 29,000  Level Albuquerque Center
Fri 06:38:35 PM 36.6225 -102.1933 141° Southeast 483 556 29,000  Level Albuquerque Center
Fri 06:39:36 PM 36.5061 -102.0767 141° Southeast 481 554 29,000  Level Albuquerque Center
Fri 06:40:38 PM 36.4219 -101.9486 129° Southeast 474 545 29,000  Level Albuquerque Center
Fri 06:41:39 PM 36.3369 -101.8217 130° Southeast 478 550 29,000  Level Albuquerque Center
Fri 06:42:41 PM 36.2525 -101.6947 129° Southeast 477 549 29,000  Level Albuquerque Center
Fri 06:43:43 PM 36.1667 -101.5661 130° Southeast 481 554 29,000  Level Albuquerque Center
Fri 06:44:44 PM 36.0806 -101.4386 130° Southeast 481 554 29,000  Level Albuquerque Center
Fri 06:45:46 PM 35.9942 -101.3089 129° Southeast 484 557 29,000  Level Albuquerque Center
Fri 06:46:47 PM 35.8894 -101.1542 130° Southeast 487 560 29,000  Level Albuquerque Center
Fri 06:47:49 PM 35.8039 -101.0258 129° Southeast 485 558 29,000  Level Albuquerque Center
Fri 06:48:51 PM 35.7169 -100.8967 130° Southeast 486 559 29,000  Level Albuquerque Center
Fri 06:49:52 PM 35.6297 -100.7697 130° Southeast 484 557 29,000  Level Albuquerque Center
Fri 06:50:54 PM 35.5431 -100.6428 130° Southeast 484 557 29,000  Level Albuquerque Center
Fri 06:51:55 PM 35.4561 -100.5161 130° Southeast 484 557 29,000  Level Albuquerque Center
Fri 06:52:57 PM 35.3681 -100.3878 130° Southeast 489 563 29,000  Level Albuquerque Center
Fri 06:53:59 PM 35.2800 -100.2606 130° Southeast 489 563 29,000  Level Albuquerque Center
Fri 06:55:00 PM 35.1922 -100.1331 130° Southeast 489 563 29,000  Level Albuquerque Center
Fri 06:56:02 PM 35.0806 -99.9717 130° Southeast 515 593 29,000  Level Albuquerque Center
Fri 06:57:03 PM 34.9817 -99.8303 130° Southeast 542 624 29,000  Level Albuquerque Center
Fri 06:58:05 PM 34.8842 -99.6903 130° Southeast 542 624 29,000  Level Albuquerque Center
Fri 06:58:39 PM 34.8278 -99.6092 130° Southeast 536 617 29,000  Level Fort Worth Center
Fri 06:59:39 PM 34.7322 -99.4703 130° Southeast 536 617 29,000  Level Fort Worth Center
Fri 07:00:39 PM 34.6383 -99.3467 133° Southeast 548 631 29,000  Level Fort Worth Center
Fri 07:01:39 PM 34.5422 -99.2111 131° Southeast 540 621 29,000  Level Fort Worth Center
Fri 07:02:39 PM 34.4419 -99.0706 131° Southeast 540 621 29,000  Level Fort Worth Center
Fri 07:03:39 PM 34.3436 -98.9328 131° Southeast 545 627 29,000 -100 Level Fort Worth Center
Fri 07:04:39 PM 34.2428 -98.7953 132° Southeast 540 621 28,800 -750 Descending Fort Worth Center
Fri 07:05:39 PM 34.1422 -98.6531 130° Southeast 545 627 27,500 -1,700 Descending Fort Worth Center
Fri 07:06:39 PM 34.0578 -98.5317 130° Southeast 545 627 25,400 -1,750 Descending Fort Worth Center
Fri 07:07:39 PM 33.9358 -98.3672 132° Southeast 540 621 24,000 -1,150 Descending Fort Worth Center
Fri 07:08:39 PM 33.8408 -98.2361 131° Southeast 529 609 23,100 -1,700 Descending Fort Worth Center
Fri 07:09:39 PM 33.7581 -98.1231 131° Southeast 514 592 20,600 -2,450 Descending Fort Worth Center
Fri 07:10:39 PM 33.6669 -98.0000 132° Southeast 503 579 18,200 -2,350 Descending Fort Worth Center
Fri 07:11:39 PM 33.5736 -97.8722 131° Southeast 476 548 15,900 -2,150 Descending Fort Worth Center
Fri 07:12:39 PM 33.4944 -97.7747 134° Southeast 455 524 13,900 -1,650 Descending Fort Worth Center
Fri 07:13:39 PM 33.4072 -97.6697 135° Southeast 421 484 12,600 -1,450 Descending Fort Worth Center
Fri 07:14:39 PM 33.3300 -97.5800 136° Southeast 389 448 11,000 -800 Descending Fort Worth Center
Fri 07:15:39 PM 33.2633 -97.5003 135° Southeast 383 441 11,000 -50 Level Fort Worth Center
Fri 07:16:39 PM 33.1819 -97.4036 135° Southeast 378 435 10,900  Descending Fort Worth Center
Fri 07:17:39 PM 33.1131 -97.3267 137° Southeast 378 435 11,000 50 Climbing Fort Worth Center
Fri 07:18:39 PM 33.0378 -97.2375 135° Southeast 355 409 11,000  Level Fort Worth Center
Fri 07:19:39 PM 32.9814 -97.1781 139° Southeast 314 361 11,000 -300 Level Fort Worth Center
Fri 07:20:39 PM 32.8936 -97.1711 176° South 273 314 10,400 -750 Descending Fort Worth Center
Fri 07:21:39 PM 32.8164 -97.1711 180° South 279 321 9,500 -1,100 Descending Fort Worth Center
Fri 07:22:39 PM 32.7517 -97.1689 178° South 261 300 8,200 -1,700 Descending Fort Worth Center
Fri 07:23:39 PM 32.7036 -97.1369 151° Southeast 199 229 6,100 -1,623 Descending Fort Worth Center
Fri 07:24:41 PM 32.7000 -97.0667 93° East 205 236 4,900 -1,161 Descending Dallas / Fort Worth TRACON

Login

Don't have an account? Register now (free) for customized features, flight alerts, and more!